createdAt,value
2019-05-29T00:00:38.457Z,10.96
2019-05-29T00:05:43.959Z,10.90
2019-05-29T00:10:49.255Z,10.85
2019-05-29T00:15:54.516Z,10.83
2019-05-29T00:20:59.734Z,10.81
2019-05-29T00:26:06.328Z,10.85
2019-05-29T00:31:12.259Z,10.92
2019-05-29T00:36:17.606Z,10.92
2019-05-29T00:41:22.999Z,10.94
2019-05-29T00:46:28.247Z,10.99
2019-05-29T00:51:33.478Z,11.06
2019-05-29T00:56:38.982Z,11.07
2019-05-29T01:01:44.341Z,11.08
2019-05-29T01:06:49.937Z,11.07
2019-05-29T01:11:55.367Z,11.09
2019-05-29T01:17:00.609Z,10.99
2019-05-29T01:22:06.187Z,10.96
2019-05-29T01:27:12.596Z,10.98
2019-05-29T01:32:17.930Z,10.94
2019-05-29T01:37:24.280Z,10.84
2019-05-29T01:42:29.867Z,10.75
2019-05-29T01:47:35.198Z,10.72
2019-05-29T01:52:40.388Z,10.70
2019-05-29T01:57:45.742Z,10.55
2019-05-29T02:02:51.210Z,10.57
2019-05-29T02:07:56.458Z,10.44
2019-05-29T02:13:01.612Z,10.51
2019-05-29T02:18:06.806Z,10.50
2019-05-29T02:23:12.263Z,10.45
2019-05-29T02:28:18.818Z,10.39
2019-05-29T02:33:26.167Z,10.37
2019-05-29T02:38:31.377Z,10.33
2019-05-29T02:43:36.788Z,10.30
2019-05-29T02:48:42.165Z,10.31
2019-05-29T02:53:47.376Z,10.42
2019-05-29T02:58:52.544Z,10.43
2019-05-29T03:03:57.686Z,10.37
2019-05-29T03:09:05.007Z,10.35
2019-05-29T03:14:10.278Z,10.50
2019-05-29T03:19:15.636Z,10.48
2019-05-29T03:24:21.041Z,10.54
2019-05-29T03:29:28.031Z,10.58
2019-05-29T03:34:39.196Z,10.67
2019-05-29T03:39:41.525Z,10.69
2019-05-29T03:44:46.704Z,10.69
2019-05-29T03:49:52.028Z,10.78
2019-05-29T03:54:57.159Z,10.69
2019-05-29T04:00:02.318Z,10.74
2019-05-29T04:05:09.722Z,10.84
2019-05-29T04:10:16.808Z,10.94
2019-05-29T04:15:22.109Z,10.84
2019-05-29T04:20:27.595Z,10.79
2019-05-29T04:25:39.587Z,10.76
2019-05-29T04:30:42.892Z,10.66
2019-05-29T04:35:48.215Z,10.69
2019-05-29T04:40:53.566Z,10.65
2019-05-29T04:45:58.863Z,10.68
2019-05-29T04:51:04.994Z,10.57
2019-05-29T04:56:10.508Z,10.75
2019-05-29T05:01:15.970Z,10.83
2019-05-29T05:06:21.286Z,10.96
2019-05-29T05:11:26.440Z,11.17
2019-05-29T05:16:31.713Z,11.27
2019-05-29T05:21:38.231Z,11.25
2019-05-29T05:26:43.591Z,11.42
2019-05-29T05:31:48.926Z,11.39
2019-05-29T05:36:54.218Z,11.43
2019-05-29T05:41:59.767Z,11.56
2019-05-29T05:47:05.325Z,11.52
2019-05-29T05:52:10.687Z,11.64
2019-05-29T05:57:15.959Z,11.64
2019-05-29T06:02:21.251Z,11.72
2019-05-29T06:07:26.811Z,11.88
2019-05-29T06:12:32.319Z,11.87
2019-05-29T06:17:38.597Z,12.19
2019-05-29T06:22:43.990Z,12.31
2019-05-29T06:27:49.262Z,12.45
2019-05-29T06:32:54.461Z,12.55
2019-05-29T06:37:59.829Z,12.40
2019-05-29T06:43:05.703Z,12.40
2019-05-29T06:48:14.033Z,12.47
2019-05-29T06:53:19.325Z,12.41
2019-05-29T06:58:24.554Z,12.43
2019-05-29T07:03:30.049Z,12.56
2019-05-29T07:08:40.003Z,12.79
2019-05-29T07:24:11.720Z,13.01
2019-05-29T07:29:16.992Z,13.00
2019-05-29T07:34:23.194Z,13.02
2019-05-29T07:39:28.411Z,13.20
2019-05-29T07:44:33.898Z,13.26
2019-05-29T07:49:43.019Z,13.40
2019-05-29T07:54:47.879Z,13.52
2019-05-29T07:59:53.531Z,13.56
2019-05-29T08:04:58.887Z,13.62
2019-05-29T08:10:06.292Z,13.68
2019-05-29T08:15:12.746Z,13.82
2019-05-29T08:20:18.354Z,14.19
2019-05-29T08:25:23.700Z,14.19
2019-05-29T08:30:29.067Z,14.30
2019-05-29T08:35:34.246Z,14.30
2019-05-29T08:40:39.677Z,14.33
2019-05-29T08:45:45.524Z,14.39
2019-05-29T08:50:52.091Z,14.59
2019-05-29T08:55:57.462Z,14.65
2019-05-29T09:01:02.848Z,14.85
2019-05-29T09:06:10.389Z,14.69
2019-05-29T09:11:15.414Z,14.57
2019-05-29T09:16:20.986Z,14.57
2019-05-29T09:21:27.885Z,14.66
2019-05-29T09:26:33.144Z,14.77
2019-05-29T09:31:38.227Z,14.94
2019-05-29T09:36:43.732Z,14.90
2019-05-29T09:41:48.830Z,14.93
2019-05-29T09:46:54.134Z,15.01
2019-05-29T09:51:59.960Z,15.27
2019-05-29T09:57:05.511Z,15.15
2019-05-29T10:02:10.767Z,15.47
2019-05-29T10:07:16.104Z,15.59
2019-05-29T10:12:21.354Z,15.36
2019-05-29T10:17:26.479Z,15.22
2019-05-29T10:22:31.877Z,15.29
2019-05-29T10:27:37.284Z,15.25
2019-05-29T10:32:43.134Z,15.31
2019-05-29T10:37:50.707Z,15.07
2019-05-29T10:42:56.116Z,15.42
2019-05-29T10:48:01.315Z,15.60
2019-05-29T10:53:06.863Z,15.45
2019-05-29T10:58:13.142Z,15.78
2019-05-29T11:03:18.802Z,15.93
2019-05-29T11:08:24.167Z,16.27
2019-05-29T11:13:29.344Z,16.37
2019-05-29T11:18:34.819Z,16.01
2019-05-29T11:23:40.083Z,15.92
2019-05-29T11:28:45.139Z,16.02
2019-05-29T11:33:50.761Z,16.26
2019-05-29T11:38:56.979Z,16.25
2019-05-29T11:44:03.967Z,16.15
2019-05-29T11:49:09.225Z,16.19
2019-05-29T11:54:14.367Z,16.66
2019-05-29T11:59:19.587Z,16.52
2019-05-29T12:04:26.855Z,16.70
2019-05-29T12:09:33.594Z,16.32
2019-05-29T12:14:58.070Z,16.59
2019-05-29T12:19:45.685Z,17.05
2019-05-29T12:24:50.763Z,17.34
2019-05-29T12:29:56.658Z,17.22
2019-05-29T12:35:03.140Z,17.50
2019-05-29T12:40:12.015Z,17.53
2019-05-29T12:45:17.698Z,18.16
2019-05-29T12:50:23.082Z,18.13
2019-05-29T12:55:28.381Z,18.66
2019-05-29T13:00:33.876Z,19.61
2019-05-29T13:05:39.060Z,20.73
2019-05-29T13:10:44.172Z,22.20
2019-05-29T13:15:49.509Z,22.16
2019-05-29T13:20:55.107Z,22.55
2019-05-29T13:26:01.802Z,23.28
2019-05-29T13:31:06.990Z,23.54
2019-05-29T13:36:12.217Z,23.47
2019-05-29T13:41:17.445Z,23.45
2019-05-29T13:46:22.824Z,23.10
2019-05-29T13:51:28.546Z,23.48
2019-05-29T13:56:33.822Z,23.86
2019-05-29T14:01:39.008Z,23.88
2019-05-29T14:06:44.454Z,23.86
2019-05-29T14:11:49.918Z,23.75
2019-05-29T14:16:55.274Z,24.51
2019-05-29T14:22:01.140Z,24.93
2019-05-29T14:27:08.014Z,24.28
2019-05-29T14:32:13.478Z,23.16
2019-05-29T14:37:19.166Z,23.67
2019-05-29T14:42:24.672Z,23.20
2019-05-29T14:47:30.092Z,21.72
2019-05-29T14:52:35.559Z,20.13
2019-05-29T14:57:40.936Z,21.52
2019-05-29T15:02:46.109Z,22.26
2019-05-29T15:07:51.528Z,22.92
2019-05-29T15:12:58.228Z,23.79
2019-05-29T15:18:04.909Z,24.13
2019-05-29T15:23:11.519Z,22.25
2019-05-29T15:28:18.007Z,23.38
2019-05-29T15:33:24.507Z,23.46
2019-05-29T15:38:29.887Z,23.43
2019-05-29T15:43:35.112Z,24.02
2019-05-29T15:48:40.438Z,25.07
2019-05-29T15:53:45.660Z,24.82
2019-05-29T15:58:51.035Z,23.60
2019-05-29T16:03:56.427Z,22.77
2019-05-29T16:09:01.953Z,23.14
2019-05-29T16:14:08.921Z,21.73
2019-05-29T16:19:14.179Z,20.64
2019-05-29T16:24:19.353Z,21.39
2019-05-29T16:29:24.623Z,22.10
2019-05-29T16:34:29.861Z,23.39
2019-05-29T16:39:35.372Z,23.30
2019-05-29T16:44:40.824Z,24.41
2019-05-29T16:49:46.345Z,24.14
2019-05-29T16:54:51.878Z,23.54
2019-05-29T16:59:57.325Z,22.99
2019-05-29T17:05:02.582Z,21.59
2019-05-29T17:10:10.085Z,22.36
2019-05-29T17:15:17.129Z,23.14
2019-05-29T17:20:25.457Z,20.76
2019-05-29T17:25:30.598Z,18.72
2019-05-29T17:30:36.015Z,17.72
2019-05-29T17:35:41.577Z,16.72
2019-05-29T17:40:46.820Z,16.34
2019-05-29T17:45:52.319Z,16.10
2019-05-29T17:50:57.784Z,15.89
2019-05-29T17:56:03.322Z,15.74
2019-05-29T18:01:08.665Z,15.42
2019-05-29T18:06:13.900Z,15.36
2019-05-29T18:11:19.531Z,15.00
2019-05-29T18:16:25.614Z,15.01
2019-05-29T18:21:31.301Z,14.92
2019-05-29T18:26:46.839Z,14.77
2019-05-29T18:31:43.906Z,14.27
2019-05-29T18:36:49.605Z,14.17
2019-05-29T18:41:54.720Z,13.90
2019-05-29T18:47:00.197Z,13.85
2019-05-29T18:52:05.420Z,13.60
2019-05-29T18:57:15.796Z,13.42
2019-05-29T19:02:18.220Z,13.45
2019-05-29T19:07:23.872Z,13.21
2019-05-29T19:12:30.080Z,13.06
2019-05-29T19:17:35.625Z,12.97
2019-05-29T19:22:41.118Z,12.84
2019-05-29T19:27:47.992Z,12.62
2019-05-29T19:32:53.588Z,12.35
2019-05-29T19:37:59.026Z,12.21
2019-05-29T19:43:04.595Z,11.97
2019-05-29T19:48:11.587Z,11.88
2019-05-29T19:53:17.052Z,11.77
2019-05-29T19:58:22.588Z,11.68
2019-05-29T20:03:28.335Z,11.53
2019-05-29T20:08:37.322Z,11.50
2019-05-29T20:13:43.710Z,11.33
2019-05-29T20:18:48.942Z,11.34
2019-05-29T20:23:54.819Z,11.31
2019-05-29T20:29:00.148Z,11.20
2019-05-29T20:34:05.403Z,11.11
2019-05-29T20:39:10.709Z,10.99
2019-05-29T20:44:16.116Z,10.68
2019-05-29T20:49:21.384Z,10.63
2019-05-29T20:54:26.666Z,10.57
2019-05-29T20:59:32.324Z,10.47
2019-05-29T21:04:38.512Z,10.39
2019-05-29T21:09:44.076Z,10.34
2019-05-29T21:14:49.469Z,10.21
2019-05-29T21:19:54.789Z,10.18
2019-05-29T21:25:06.630Z,10.20
2019-05-29T21:30:08.455Z,10.10
2019-05-29T21:35:13.662Z,9.96
2019-05-29T21:40:18.958Z,9.96
2019-05-29T21:45:24.393Z,10.00
2019-05-29T21:50:31.305Z,9.98
2019-05-29T21:55:37.531Z,10.00
2019-05-29T22:00:52.250Z,9.87
2019-05-29T22:05:59.292Z,9.81
2019-05-29T22:11:04.768Z,9.81
2019-05-29T22:16:10.057Z,9.70
2019-05-29T22:21:15.354Z,9.70
2019-05-29T22:26:20.739Z,9.59
2019-05-29T22:31:26.132Z,9.61
2019-05-29T22:36:31.658Z,9.50
2019-05-29T22:41:37.110Z,9.45
2019-05-29T22:46:42.257Z,9.38
2019-05-29T22:51:47.892Z,9.36
2019-05-29T22:56:53.970Z,9.28
2019-05-29T23:02:00.386Z,9.21
2019-05-29T23:07:06.061Z,9.31
2019-05-29T23:12:11.405Z,9.28
2019-05-29T23:17:16.768Z,9.26
2019-05-29T23:22:24.454Z,9.22
2019-05-29T23:27:29.236Z,9.22
2019-05-29T23:32:34.376Z,9.04
2019-05-29T23:37:39.575Z,9.00
2019-05-29T23:42:44.978Z,8.95
2019-05-29T23:47:50.296Z,8.86
2019-05-29T23:52:55.683Z,8.86
2019-05-29T23:58:01.976Z,8.84
